createdAt,value
2023-04-24T00:00:58.410Z,0.73
2023-04-24T00:03:29.059Z,0.70
2023-04-24T00:05:57.348Z,0.70
2023-04-24T00:08:25.300Z,0.70
2023-04-24T00:10:53.730Z,0.82
2023-04-24T00:13:21.684Z,0.60
2023-04-24T00:15:51.027Z,0.90
2023-04-24T00:18:19.380Z,0.95
2023-04-24T00:20:47.443Z,0.70
2023-04-24T00:23:15.539Z,0.77
2023-04-24T00:25:43.430Z,0.88
2023-04-24T00:28:11.419Z,0.90
2023-04-24T00:30:39.463Z,0.90
2023-04-24T00:33:08.792Z,0.95
2023-04-24T00:35:36.734Z,0.88
2023-04-24T00:38:04.764Z,0.85
2023-04-24T00:40:32.709Z,0.82
2023-04-24T00:43:00.697Z,0.90
2023-04-24T00:45:28.739Z,0.98
2023-04-24T00:47:56.868Z,1.00
2023-04-24T00:50:26.413Z,0.73
2023-04-24T00:52:54.795Z,0.73
2023-04-24T00:55:22.924Z,0.90
2023-04-24T00:57:51.850Z,0.80
2023-04-24T01:00:20.608Z,0.90
2023-04-24T01:02:49.702Z,0.80
2023-04-24T01:05:18.363Z,0.90
2023-04-24T01:07:50.084Z,0.85
2023-04-24T01:10:19.197Z,0.80
2023-04-24T01:12:48.249Z,0.98
2023-04-24T01:15:16.532Z,0.77
2023-04-24T01:17:44.481Z,0.93
2023-04-24T01:20:12.826Z,1.00
2023-04-24T01:22:44.259Z,1.00
2023-04-24T01:25:12.265Z,1.10
2023-04-24T01:27:40.189Z,0.77
2023-04-24T01:30:09.624Z,0.70
2023-04-24T01:32:38.492Z,0.80
2023-04-24T01:35:07.913Z,0.88
2023-04-24T01:37:38.186Z,0.82
2023-04-24T01:40:09.453Z,0.90
2023-04-24T01:42:37.766Z,1.15
2023-04-24T01:45:07.261Z,1.17
2023-04-24T01:47:35.267Z,1.10
2023-04-24T01:50:03.295Z,1.27
2023-04-24T01:52:32.304Z,1.05
2023-04-24T01:55:02.035Z,1.10
2023-04-24T01:57:32.455Z,1.23
2023-04-24T02:00:00.602Z,0.77
2023-04-24T02:02:31.105Z,0.90
2023-04-24T02:04:59.243Z,0.88
2023-04-24T02:07:27.247Z,0.90
2023-04-24T02:09:56.474Z,0.80
2023-04-24T02:12:24.411Z,0.80
2023-04-24T02:14:54.560Z,0.95
2023-04-24T02:17:22.776Z,0.85
2023-04-24T02:19:50.937Z,1.00
2023-04-24T02:22:18.836Z,0.85
2023-04-24T02:24:46.797Z,1.00
2023-04-24T02:27:17.330Z,1.13
2023-04-24T02:29:46.063Z,1.17
2023-04-24T02:32:16.812Z,0.90
2023-04-24T02:34:45.358Z,0.93
2023-04-24T02:37:14.189Z,1.33
2023-04-24T02:39:42.235Z,1.17
2023-04-24T02:42:10.820Z,1.13
2023-04-24T02:44:38.849Z,1.48
2023-04-24T02:47:06.802Z,0.90
2023-04-24T02:49:36.170Z,0.80
2023-04-24T02:52:04.138Z,1.20
2023-04-24T02:54:32.127Z,1.00
2023-04-24T02:57:00.044Z,1.02
2023-04-24T02:59:29.892Z,1.00
2023-04-24T03:01:57.845Z,1.15
2023-04-24T03:04:26.092Z,1.38
2023-04-24T03:06:55.796Z,1.00
2023-04-24T03:09:23.901Z,0.80
2023-04-24T03:11:52.079Z,1.00
2023-04-24T03:14:20.190Z,1.48
2023-04-24T03:16:48.242Z,1.20
2023-04-24T03:19:16.326Z,1.23
2023-04-24T03:21:57.261Z,1.23
2023-04-24T03:24:25.978Z,1.17
2023-04-24T03:26:53.962Z,1.17
2023-04-24T03:29:44.827Z,1.58
2023-04-24T03:32:13.386Z,1.17
2023-04-24T03:34:41.638Z,1.15
2023-04-24T03:37:14.256Z,1.40
2023-04-24T03:39:47.167Z,1.00
2023-04-24T03:42:16.621Z,1.17
2023-04-24T03:44:52.496Z,1.13
2023-04-24T03:47:24.428Z,1.10
2023-04-24T03:49:55.480Z,1.00
2023-04-24T03:52:24.849Z,1.05
2023-04-24T03:54:53.109Z,1.10
2023-04-24T03:57:21.223Z,1.00
2023-04-24T04:00:05.266Z,1.00
2023-04-24T04:02:42.681Z,1.00
2023-04-24T04:05:11.530Z,0.70
2023-04-24T04:07:40.904Z,0.90
2023-04-24T04:10:10.054Z,0.95
2023-04-24T04:12:39.098Z,0.90
2023-04-24T04:15:08.094Z,0.90
2023-04-24T04:17:36.607Z,0.93
2023-04-24T04:20:10.988Z,0.90
2023-04-24T04:22:44.343Z,1.17
2023-04-24T04:25:16.912Z,1.27
2023-04-24T04:27:45.131Z,1.17
2023-04-24T04:30:15.238Z,1.40
2023-04-24T04:32:50.677Z,1.10
2023-04-24T04:35:18.910Z,1.30
2023-04-24T04:37:48.478Z,1.35
2023-04-24T04:40:39.263Z,1.50
2023-04-24T04:43:08.220Z,1.60
2023-04-24T04:45:44.374Z,1.15
2023-04-24T04:48:32.416Z,1.45
2023-04-24T04:51:02.423Z,1.58
2023-04-24T04:53:32.161Z,1.60
2023-04-24T04:56:00.602Z,1.58
2023-04-24T04:58:35.267Z,1.60
2023-04-24T05:01:04.488Z,1.80
2023-04-24T05:03:37.978Z,1.42
2023-04-24T05:06:10.472Z,1.35
2023-04-24T05:08:42.073Z,1.38
2023-04-24T05:11:14.515Z,1.20
2023-04-24T05:13:43.278Z,1.45
2023-04-24T05:16:17.114Z,1.25
2023-04-24T05:18:45.147Z,1.70
2023-04-24T05:21:16.226Z,1.48
2023-04-24T05:23:49.971Z,1.77
2023-04-24T05:26:25.637Z,1.63
2023-04-24T05:28:53.798Z,1.48
2023-04-24T05:31:22.466Z,1.35
2023-04-24T05:33:51.670Z,1.50
2023-04-24T05:36:19.701Z,1.65
2023-04-24T05:38:49.829Z,1.70
2023-04-24T05:41:17.880Z,1.58
2023-04-24T05:43:45.818Z,1.60
2023-04-24T05:46:14.052Z,1.40
2023-04-24T05:48:41.940Z,1.48
2023-04-24T05:51:09.837Z,1.80
2023-04-24T05:53:37.897Z,2.40
2023-04-24T05:56:07.879Z,2.50
2023-04-24T05:58:38.424Z,2.60
2023-04-24T06:01:07.068Z,2.63
2023-04-24T06:03:35.694Z,3.28
2023-04-24T06:06:06.208Z,3.08
2023-04-24T06:08:35.393Z,2.90
2023-04-24T06:11:04.777Z,1.80
2023-04-24T06:13:35.410Z,2.25
2023-04-24T06:16:21.890Z,2.00
2023-04-24T06:18:56.501Z,2.03
2023-04-24T06:21:24.488Z,2.20
2023-04-24T06:23:52.369Z,1.90
2023-04-24T06:26:20.985Z,1.80
2023-04-24T06:28:51.388Z,2.08
2023-04-24T06:31:20.880Z,1.95
2023-04-24T06:33:48.764Z,2.03
2023-04-24T06:36:16.916Z,1.45
2023-04-24T06:38:44.797Z,1.42
2023-04-24T06:41:12.859Z,1.27
2023-04-24T06:43:41.112Z,1.58
2023-04-24T06:46:10.717Z,0.90
2023-04-24T06:48:38.718Z,1.67
2023-04-24T06:51:06.938Z,0.95
2023-04-24T06:53:34.971Z,1.00
2023-04-24T06:56:02.863Z,1.30
2023-04-24T06:58:32.510Z,1.30
2023-04-24T07:01:00.432Z,1.33
2023-04-24T07:03:29.858Z,0.98
2023-04-24T07:05:58.909Z,1.33
2023-04-24T07:08:27.017Z,1.60
2023-04-24T07:10:54.939Z,1.38
2023-04-24T07:13:22.987Z,1.30
2023-04-24T07:15:51.965Z,1.17
2023-04-24T07:18:20.012Z,1.48
2023-04-24T07:20:51.155Z,1.20
2023-04-24T07:23:19.467Z,1.15
2023-04-24T07:25:47.839Z,1.30
2023-04-24T07:28:15.747Z,1.27
2023-04-24T07:30:43.748Z,1.52
2023-04-24T07:33:14.170Z,1.65
2023-04-24T07:35:42.189Z,1.27
2023-04-24T07:38:12.041Z,1.38
2023-04-24T07:40:39.964Z,1.65
2023-04-24T07:43:07.885Z,1.50
2023-04-24T07:45:38.138Z,1.20
2023-04-24T07:48:06.410Z,1.70
2023-04-24T07:50:34.501Z,1.27
2023-04-24T07:53:02.451Z,1.80
2023-04-24T07:55:31.733Z,1.60
2023-04-24T07:57:59.650Z,1.45
2023-04-24T08:00:27.662Z,1.75
2023-04-24T08:02:55.751Z,1.63
2023-04-24T08:05:24.302Z,1.52
2023-04-24T08:07:52.399Z,2.00
2023-04-24T08:10:20.280Z,2.05
2023-04-24T08:12:49.573Z,1.80
2023-04-24T08:15:17.534Z,2.15
2023-04-24T08:17:45.597Z,1.80
2023-04-24T08:20:15.427Z,1.80
2023-04-24T08:22:43.627Z,1.83
2023-04-24T08:25:12.242Z,2.45
2023-04-24T08:27:40.924Z,3.60
2023-04-24T08:30:11.100Z,3.75
2023-04-24T08:32:39.572Z,3.20
2023-04-24T08:35:10.152Z,2.53
2023-04-24T08:37:38.249Z,2.75
2023-04-24T08:40:13.978Z,2.10
2023-04-24T08:42:43.056Z,2.08
2023-04-24T08:45:13.841Z,2.03
2023-04-24T08:47:43.257Z,1.90
2023-04-24T08:50:13.535Z,1.90
2023-04-24T08:52:41.608Z,1.65
2023-04-24T08:55:10.163Z,1.75
2023-04-24T08:57:41.090Z,1.55
2023-04-24T09:00:11.990Z,1.35
2023-04-24T09:02:45.129Z,1.42
2023-04-24T09:05:14.893Z,1.48
2023-04-24T09:07:46.784Z,1.42
2023-04-24T09:10:15.170Z,1.63
2023-04-24T09:12:43.770Z,1.70
2023-04-24T09:15:13.137Z,1.50
2023-04-24T09:17:42.413Z,1.35
2023-04-24T09:20:10.820Z,1.40
2023-04-24T09:22:39.031Z,1.45
2023-04-24T09:25:09.094Z,1.50
2023-04-24T09:27:37.418Z,1.50
2023-04-24T09:30:06.133Z,1.90
2023-04-24T09:32:34.199Z,1.70
2023-04-24T09:35:12.473Z,1.25
2023-04-24T09:37:42.418Z,1.45
2023-04-24T09:40:14.784Z,1.17
2023-04-24T09:42:46.150Z,1.40
2023-04-24T09:45:15.618Z,1.63
2023-04-24T09:47:44.747Z,1.50
2023-04-24T09:50:20.701Z,2.00
2023-04-24T09:53:06.990Z,1.58
2023-04-24T09:55:35.164Z,1.20
2023-04-24T09:58:06.239Z,1.40
2023-04-24T10:00:35.114Z,1.60
2023-04-24T10:03:04.917Z,1.30
2023-04-24T10:05:36.796Z,1.55
2023-04-24T10:08:06.492Z,1.30
2023-04-24T10:10:35.929Z,1.30
2023-04-24T10:13:04.968Z,1.80
2023-04-24T10:15:33.390Z,1.75
2023-04-24T10:18:01.797Z,1.40
2023-04-24T10:20:32.136Z,1.27
2023-04-24T10:23:02.242Z,1.80
2023-04-24T10:25:33.181Z,1.70
2023-04-24T10:28:02.347Z,1.40
2023-04-24T10:30:31.686Z,1.30
2023-04-24T10:32:59.615Z,1.30
2023-04-24T10:35:27.916Z,1.48
2023-04-24T10:37:59.611Z,1.30
2023-04-24T10:40:32.336Z,1.38
2023-04-24T10:43:00.320Z,1.10
2023-04-24T10:45:28.496Z,1.30
2023-04-24T10:48:00.565Z,1.13
2023-04-24T10:50:30.323Z,1.23
2023-04-24T10:53:08.487Z,1.48
2023-04-24T10:55:46.511Z,1.30
2023-04-24T10:58:15.878Z,1.60
2023-04-24T11:00:45.760Z,1.75
2023-04-24T11:03:28.722Z,1.40
2023-04-24T11:06:01.961Z,1.17
2023-04-24T11:08:38.287Z,1.40
2023-04-24T11:11:14.026Z,1.23
2023-04-24T11:14:09.542Z,1.05
2023-04-24T11:16:41.686Z,1.00
2023-04-24T11:19:12.960Z,0.90
2023-04-24T11:21:45.601Z,0.95
2023-04-24T11:24:31.744Z,1.65
2023-04-24T11:27:07.757Z,1.00
2023-04-24T11:29:47.404Z,1.02
2023-04-24T11:32:27.345Z,0.90
2023-04-24T11:34:56.805Z,1.35
2023-04-24T11:37:26.197Z,1.23
2023-04-24T11:39:55.662Z,1.17
2023-04-24T11:42:26.512Z,1.30
2023-04-24T11:44:56.538Z,0.73
2023-04-24T11:47:31.095Z,0.80
2023-04-24T11:50:00.516Z,1.20
2023-04-24T11:52:29.398Z,0.95
2023-04-24T11:54:57.783Z,1.75
2023-04-24T11:57:29.992Z,1.17
2023-04-24T11:59:57.977Z,1.10
2023-04-24T12:02:27.477Z,1.15
2023-04-24T12:04:56.420Z,0.80
2023-04-24T12:07:25.950Z,1.48
2023-04-24T12:09:59.426Z,1.40
2023-04-24T12:12:29.905Z,1.23
2023-04-24T12:14:59.599Z,1.00
2023-04-24T12:17:30.107Z,0.80
2023-04-24T12:20:03.280Z,1.05
2023-04-24T12:22:46.534Z,1.20
2023-04-24T12:25:14.860Z,1.25
2023-04-24T12:27:44.337Z,1.00
2023-04-24T12:30:15.338Z,1.10
2023-04-24T12:32:44.541Z,0.85
2023-04-24T12:35:12.591Z,0.95
2023-04-24T12:37:40.706Z,0.75
2023-04-24T12:40:10.618Z,1.30
2023-04-24T12:42:45.997Z,1.15
2023-04-24T12:45:14.773Z,1.38
2023-04-24T12:47:44.621Z,1.30
2023-04-24T12:50:13.937Z,1.10
2023-04-24T12:52:42.572Z,1.13
2023-04-24T12:55:12.944Z,1.02
2023-04-24T12:57:42.024Z,0.90
2023-04-24T13:00:12.274Z,0.82
2023-04-24T13:02:40.922Z,0.75
2023-04-24T13:05:09.671Z,1.25
2023-04-24T13:07:37.524Z,1.20
2023-04-24T13:10:06.011Z,1.15
2023-04-24T13:12:34.058Z,0.60
2023-04-24T13:15:01.991Z,1.10
2023-04-24T13:17:31.752Z,1.10
2023-04-24T13:19:59.677Z,1.20
2023-04-24T13:22:28.303Z,1.13
2023-04-24T13:24:57.243Z,0.95
2023-04-24T13:27:25.195Z,1.10
2023-04-24T13:29:53.269Z,0.90
2023-04-24T13:32:21.323Z,1.02
2023-04-24T13:34:50.856Z,1.60
2023-04-24T13:37:18.902Z,1.17
2023-04-24T13:39:46.789Z,1.23
2023-04-24T13:42:14.871Z,1.10
2023-04-24T13:44:42.833Z,0.80
2023-04-24T13:47:10.828Z,1.08
2023-04-24T13:49:38.751Z,1.10
2023-04-24T13:52:08.366Z,0.80
2023-04-24T13:54:36.386Z,1.48
2023-04-24T13:57:05.080Z,0.77
2023-04-24T13:59:32.983Z,0.90
2023-04-24T14:02:00.931Z,0.82
2023-04-24T14:04:29.114Z,1.08
2023-04-24T14:06:57.416Z,0.82
2023-04-24T14:09:26.687Z,0.80
2023-04-24T14:11:54.658Z,0.93
2023-04-24T14:14:22.578Z,0.98
2023-04-24T14:16:50.584Z,1.00
2023-04-24T14:19:18.498Z,1.00
2023-04-24T14:21:46.410Z,1.15
2023-04-24T14:24:14.372Z,0.95
2023-04-24T14:26:43.760Z,1.30
2023-04-24T14:29:15.094Z,1.15
2023-04-24T14:31:43.617Z,1.40
2023-04-24T14:34:11.651Z,1.15
2023-04-24T14:36:39.842Z,1.30
2023-04-24T14:39:08.635Z,1.00
2023-04-24T14:41:38.120Z,1.20
2023-04-24T14:44:07.445Z,1.00
2023-04-24T14:46:35.771Z,1.20
2023-04-24T14:49:03.817Z,0.80
2023-04-24T14:51:32.203Z,1.10
2023-04-24T14:54:00.702Z,0.95
2023-04-24T14:56:28.648Z,0.98
2023-04-24T14:58:57.469Z,0.70
2023-04-24T15:01:26.910Z,1.05
2023-04-24T15:03:55.228Z,0.80
2023-04-24T15:06:23.378Z,1.00
2023-04-24T15:08:51.325Z,1.00
2023-04-24T15:11:19.646Z,0.90
2023-04-24T15:13:47.975Z,1.00
2023-04-24T15:16:16.621Z,1.05
2023-04-24T15:18:46.250Z,1.00
2023-04-24T15:21:14.303Z,1.13
2023-04-24T15:23:42.278Z,0.90
2023-04-24T15:26:10.183Z,1.48
2023-04-24T15:28:38.068Z,0.80
2023-04-24T15:31:06.039Z,1.10
2023-04-24T15:33:33.912Z,1.05
2023-04-24T15:36:03.226Z,1.20
2023-04-24T15:38:31.341Z,0.90
2023-04-24T15:40:59.328Z,1.00
2023-04-24T15:43:27.258Z,0.90
2023-04-24T15:45:55.199Z,1.17
2023-04-24T15:48:23.139Z,1.20
2023-04-24T15:50:51.085Z,1.15
2023-04-24T15:53:22.612Z,1.08
2023-04-24T15:55:51.488Z,0.75
2023-04-24T15:58:20.400Z,1.08
2023-04-24T16:00:48.792Z,1.30
2023-04-24T16:03:16.888Z,0.93
2023-04-24T16:05:44.864Z,1.10
2023-04-24T16:08:14.213Z,0.95
2023-04-24T16:10:44.254Z,1.00
2023-04-24T16:13:12.321Z,1.20
2023-04-24T16:15:41.362Z,1.50
2023-04-24T16:18:09.383Z,1.33
2023-04-24T16:20:37.360Z,1.45
2023-04-24T16:23:05.442Z,1.00
2023-04-24T16:25:33.503Z,0.80
2023-04-24T16:28:03.206Z,1.73
2023-04-24T16:30:31.822Z,1.23
2023-04-24T16:32:59.777Z,0.95
2023-04-24T16:35:27.843Z,1.20
2023-04-24T16:37:55.775Z,1.05
2023-04-24T16:40:23.707Z,1.00
2023-04-24T16:42:52.774Z,1.13
2023-04-24T16:45:22.144Z,1.20
2023-04-24T16:47:50.102Z,1.20
2023-04-24T16:50:18.085Z,1.67
2023-04-24T16:52:45.957Z,1.20
2023-04-24T16:55:13.876Z,1.17
2023-04-24T16:57:41.858Z,1.00
2023-04-24T17:00:11.177Z,1.50
2023-04-24T17:02:40.720Z,4.20
2023-04-24T17:05:09.616Z,1.15
2023-04-24T17:07:37.740Z,1.13
2023-04-24T17:10:08.329Z,1.15
2023-04-24T17:12:36.360Z,1.08
2023-04-24T17:15:04.648Z,0.93
2023-04-24T17:17:32.556Z,1.00
2023-04-24T17:20:11.569Z,1.10
2023-04-24T17:22:49.014Z,1.17
2023-04-24T17:25:16.954Z,1.15
2023-04-24T17:27:45.539Z,1.20
2023-04-24T17:30:14.733Z,1.10
2023-04-24T17:32:43.012Z,1.45
2023-04-24T17:35:12.814Z,1.20
2023-04-24T17:37:40.964Z,1.10
2023-04-24T17:40:10.065Z,1.40
2023-04-24T17:42:41.461Z,1.00
2023-04-24T17:45:10.787Z,1.38
2023-04-24T17:47:38.751Z,1.40
2023-04-24T17:50:07.583Z,1.23
2023-04-24T17:52:36.868Z,1.40
2023-04-24T17:55:05.226Z,1.23
2023-04-24T17:57:33.195Z,1.42
2023-04-24T18:00:01.106Z,1.35
2023-04-24T18:02:29.094Z,1.30
2023-04-24T18:04:57.141Z,1.42
2023-04-24T18:07:25.153Z,1.40
2023-04-24T18:09:56.234Z,1.00
2023-04-24T18:12:24.430Z,0.95
2023-04-24T18:14:57.278Z,1.20
2023-04-24T18:17:34.446Z,1.40
2023-04-24T18:20:02.439Z,1.30
2023-04-24T18:22:30.507Z,1.30
2023-04-24T18:24:59.829Z,1.58
2023-04-24T18:27:30.923Z,1.20
2023-04-24T18:29:59.328Z,1.10
2023-04-24T18:32:28.096Z,1.35
2023-04-24T18:34:56.191Z,1.48
2023-04-24T18:37:24.074Z,1.50
2023-04-24T18:39:52.036Z,1.73
2023-04-24T18:42:21.348Z,1.38
2023-04-24T18:44:49.789Z,1.50
2023-04-24T18:47:17.715Z,1.70
2023-04-24T18:49:45.931Z,1.77
2023-04-24T18:52:13.809Z,2.03
2023-04-24T18:54:42.041Z,1.50
2023-04-24T18:57:09.994Z,1.45
2023-04-24T18:59:39.277Z,2.05
2023-04-24T19:02:07.387Z,2.22
2023-04-24T19:04:35.446Z,1.98
2023-04-24T19:07:03.369Z,1.88
2023-04-24T19:09:31.283Z,1.85
2023-04-24T19:12:00.193Z,1.90
2023-04-24T19:14:28.155Z,1.73
2023-04-24T19:16:57.586Z,1.90
2023-04-24T19:19:26.201Z,1.88
2023-04-24T19:21:54.192Z,1.63
2023-04-24T19:24:22.222Z,1.70
2023-04-24T19:26:50.088Z,1.83
2023-04-24T19:29:18.011Z,1.88
2023-04-24T19:31:45.905Z,1.77
2023-04-24T19:34:15.256Z,1.63
2023-04-24T19:36:43.573Z,1.55
2023-04-24T19:39:11.670Z,1.88
2023-04-24T19:41:40.084Z,1.65
2023-04-24T19:44:08.171Z,1.73
2023-04-24T19:46:36.197Z,1.80
2023-04-24T19:49:04.284Z,1.50
2023-04-24T19:51:33.609Z,1.85
2023-04-24T19:54:01.946Z,2.30
2023-04-24T19:56:29.845Z,2.50
2023-04-24T19:58:57.846Z,2.60
2023-04-24T20:01:25.922Z,2.28
2023-04-24T20:03:54.012Z,1.80
2023-04-24T20:06:21.986Z,1.75
2023-04-24T20:08:51.483Z,1.90
2023-04-24T20:11:19.653Z,1.85
2023-04-24T20:13:47.570Z,1.70
2023-04-24T20:16:15.761Z,1.70
2023-04-24T20:18:44.733Z,1.60
2023-04-24T20:21:12.613Z,1.52
2023-04-24T20:23:40.597Z,1.42
2023-04-24T20:26:11.391Z,1.95
2023-04-24T20:28:39.744Z,1.65
2023-04-24T20:31:07.668Z,2.00
2023-04-24T20:33:37.988Z,1.90
2023-04-24T20:36:06.099Z,1.77
2023-04-24T20:38:34.121Z,1.77
2023-04-24T20:41:02.007Z,1.83
2023-04-24T20:43:31.462Z,1.75
2023-04-24T20:45:59.414Z,1.70
2023-04-24T20:48:27.676Z,1.80
2023-04-24T20:50:55.957Z,1.63
2023-04-24T20:53:24.359Z,1.77
2023-04-24T20:55:52.373Z,1.75
2023-04-24T20:58:21.071Z,1.73
2023-04-24T21:00:50.625Z,2.17
2023-04-24T21:03:18.660Z,1.88
2023-04-24T21:05:46.977Z,1.70
2023-04-24T21:08:14.955Z,1.67
2023-04-24T21:10:42.938Z,1.63
2023-04-24T21:13:10.874Z,1.65
2023-04-24T21:15:39.033Z,1.40
2023-04-24T21:18:08.434Z,1.63
2023-04-24T21:20:36.582Z,1.98
2023-04-24T21:23:04.494Z,1.70
2023-04-24T21:25:32.951Z,1.55
2023-04-24T21:28:01.320Z,1.58
2023-04-24T21:30:30.084Z,1.60
2023-04-24T21:32:58.830Z,1.60
2023-04-24T21:35:28.139Z,1.80
2023-04-24T21:37:56.011Z,1.83
2023-04-24T21:40:23.996Z,1.85
2023-04-24T21:42:52.944Z,1.63
2023-04-24T21:45:21.349Z,1.67
2023-04-24T21:47:49.360Z,1.65
2023-04-24T21:50:17.398Z,2.10
2023-04-24T21:52:46.792Z,1.90
2023-04-24T21:55:14.837Z,1.90
2023-04-24T21:57:42.785Z,2.05
2023-04-24T22:00:13.504Z,2.05
2023-04-24T22:02:43.105Z,1.98
2023-04-24T22:05:15.638Z,1.90
2023-04-24T22:07:46.701Z,2.00
2023-04-24T22:10:18.045Z,1.65
2023-04-24T22:12:46.011Z,1.83
2023-04-24T22:15:14.001Z,2.00
2023-04-24T22:17:42.033Z,1.85
2023-04-24T22:20:11.337Z,2.00
2023-04-24T22:22:40.033Z,2.10
2023-04-24T22:25:08.791Z,2.35
2023-04-24T22:27:38.060Z,2.47
2023-04-24T22:30:08.877Z,2.53
2023-04-24T22:32:37.261Z,1.98
2023-04-24T22:35:05.620Z,2.58
2023-04-24T22:37:33.672Z,2.25
2023-04-24T22:40:01.618Z,2.72
2023-04-24T22:42:30.564Z,2.35
2023-04-24T22:44:59.864Z,2.50
2023-04-24T22:47:27.824Z,2.58
2023-04-24T22:49:57.578Z,1.90
2023-04-24T22:52:26.023Z,1.90
2023-04-24T22:54:53.975Z,1.83
2023-04-24T22:57:21.941Z,1.60
2023-04-24T22:59:49.888Z,1.88
2023-04-24T23:02:19.218Z,1.70
2023-04-24T23:04:48.377Z,1.73
2023-04-24T23:07:16.770Z,1.90
2023-04-24T23:09:44.662Z,2.60
2023-04-24T23:12:12.740Z,2.13
2023-04-24T23:14:40.690Z,1.83
2023-04-24T23:17:08.619Z,1.88
2023-04-24T23:19:37.864Z,2.03
2023-04-24T23:22:05.826Z,1.90
2023-04-24T23:24:33.719Z,1.90
2023-04-24T23:27:01.758Z,1.70
2023-04-24T23:29:29.706Z,1.80
2023-04-24T23:31:57.632Z,1.90
2023-04-24T23:34:25.680Z,1.60
2023-04-24T23:36:55.142Z,1.80
2023-04-24T23:39:23.356Z,2.30
2023-04-24T23:41:53.597Z,2.65
2023-04-24T23:44:21.508Z,2.20
2023-04-24T23:46:49.452Z,2.00
2023-04-24T23:49:17.417Z,1.92
2023-04-24T23:51:45.349Z,2.35
2023-04-24T23:54:14.751Z,2.00
2023-04-24T23:56:42.776Z,2.05
2023-04-24T23:59:10.698Z,1.83
